• Join FlightAware (Why Join?)
  • Login
  • US Flag 
07:38PM EDT


 

Airport Tracker/Info


-or-


 

Live Flight TrackerFlight Track Log ✈ AAL1361 ✈ 07-May-2013 ✈ KBNA - KLAX

Flight Track Log - Related Links

Times and Time Zones

All times are in EDT time to prevent confusion due to time zone crossing. See the AAL1361 flight status page for this flight to view local times or setup timezone preferences in your user account.

Time Position Orientation Groundspeed Altitude Reporting Facility
EDT Latitude Longitude Course Direction KTS MPH feet Rate Location/Type
08:14AM 36.1500 -86.7450 280° West 211 243 2,500  Level FlightAware
08:15AM 36.1550 -86.7640 288° West 232 267 2,900 1,680 Climbing FlightAware
08:15AM 36.1650 -86.8040 287° West 264 304 3,800 1,980 Climbing FlightAware
08:15AM 36.1710 -86.8250 289° West 270 311 4,400 3,120 Climbing FlightAware
08:16AM 36.1800 -86.8630 286° West 266 306 5,900 3,120 Climbing FlightAware
08:16AM 36.1920 -86.9080 288° West 276 318 7,300 2,760 Climbing FlightAware
08:17AM 36.1970 -86.9290 286° West 276 318 8,000 3,000 Climbing FlightAware
08:17AM 36.2070 -86.9680 288° West 277 319 9,300 2,820 Climbing FlightAware
08:17AM 36.2120 -86.9890 286° West 280 322 9,900 1,500 Climbing FlightAware
08:18AM 36.2290 -87.0550 288° West 318 366 10,700 1,440 Climbing FlightAware
08:19AM 36.2510 -87.1420 287° West 358 412 12,000 2,100 Climbing FlightAware
08:19AM 36.2690 -87.2180 286° West 365 420 13,700 2,700 Climbing FlightAware
08:20AM 36.2860 -87.3150 282° West 377 434 15,900 2,580 Climbing FlightAware
08:21AM 36.2990 -87.3960 281° West 388 447 17,400 2,280 Climbing FlightAware
08:21AM 36.3130 -87.4900 280° West 403 464 19,000 2,220 Climbing FlightAware
08:22AM 36.3120 -87.5930 269° West 419 482 20,600 2,280 Climbing FlightAware
08:23AM 36.3070 -87.6900 266° West 420 483 22,300 2,460 Climbing FlightAware
08:23AM 36.3020 -87.7870 266° West 421 484 23,900 2,160 Climbing FlightAware
08:24AM 36.2960 -87.8970 266° West 425 489 25,400 1,680 Climbing FlightAware
08:25AM 36.2920 -87.9730 266° West 429 494 26,200 600 Climbing FlightAware
08:26AM 36.2860 -88.0750 266° West 429 494 26,200  Level FlightAware
08:26AM 36.2820 -88.1590 267° West 429 494 26,200  Level FlightAware
08:27AM 36.2760 -88.2630 266° West 429 494 26,200 2,340 Level FlightAware
08:28AM 36.2660 -88.4550 266° West 449 517 30,300 2,580 Climbing FlightAware
08:29AM 36.2610 -88.5420 266° West 449 517 30,300 2,160 Level FlightAware
08:29AM 36.2560 -88.6590 267° West 437 503 33,200 2,160 Climbing FlightAware
08:30AM 36.2500 -88.7630 266° West 437 503 33,400 120 Climbing FlightAware
08:31AM 36.2450 -88.8480 266° West 437 503 33,400  Level FlightAware
08:32AM 36.2390 -88.9540 266° West 437 503 33,400  Level FlightAware
08:32AM 36.2340 -89.0390 266° West 437 503 33,400  Level FlightAware
08:33AM 36.2300 -89.1240 267° West 437 503 33,400  Level FlightAware
08:34AM 36.2250 -89.2090 266° West 437 503 33,400  Level FlightAware
08:34AM 36.2200 -89.2940 266° West 437 503 33,400  Level FlightAware
08:35AM 36.2140 -89.4000 266° West 437 503 33,400  Level FlightAware
08:36AM 36.2090 -89.4850 266° West 437 503 33,400  Level FlightAware
08:36AM 36.2040 -89.5700 266° West 437 503 33,400  Level FlightAware
08:37AM 36.2000 -89.6550 267° West 437 503 33,400  Level FlightAware
08:38AM 36.1950 -89.7400 266° West 437 503 33,400  Level FlightAware
08:39AM 36.1890 -89.8470 266° West 437 503 33,400  Level FlightAware
08:39AM 36.1840 -89.9320 266° West 437 503 33,400 2,700 Level FlightAware
08:40AM 36.1544 -90.2850 266° West 443 510 38,000 2,220 Climbing Memphis Center
08:41AM 36.1439 -90.4342 265° West 443 510 38,000  Level Memphis Center
08:42AM 36.1356 -90.5806 266° West 443 510 38,000  Level Memphis Center
08:43AM 36.1225 -90.7269 264° West 443 510 38,000  Level Memphis Center
08:44AM 36.1117 -90.8836 265° West 437 503 38,000  Level Memphis Center
08:45AM 36.1089 -91.0300 269° West 437 503 38,000  Level Memphis Center
08:46AM 36.1183 -91.1714 275° West 426 490 38,000  Level Memphis Center
08:47AM 36.1258 -91.3156 274° West 420 483 38,000  Level Memphis Center
08:48AM 36.1331 -91.4594 274° West 420 483 38,000  Level Memphis Center
08:49AM 36.1400 -91.5983 274° West 420 483 38,000  Level Memphis Center
08:50AM 36.1469 -91.7372 274° West 420 483 38,000  Level Memphis Center
08:51AM 36.1536 -91.8786 273° West 420 483 38,000  Level Memphis Center
08:52AM 36.1600 -92.0178 273° West 420 483 38,000  Level Memphis Center
08:53AM 36.1728 -92.1594 276° West 420 483 38,000  Level Memphis Center
08:54AM 36.1789 -92.2983 273° West 420 483 38,000  Level Memphis Center
08:55AM 36.1831 -92.4425 272° West 420 483 38,000  Level Memphis Center
08:56AM 36.1908 -92.5867 274° West 420 483 38,000  Level Memphis Center
08:57AM 36.1986 -92.7308 274° West 420 483 38,000  Level Memphis Center
08:58AM 36.2042 -92.8750 273° West 426 490 38,000  Level Memphis Center
08:59AM 36.2075 -93.0217 272° West 425 489 38,000  Level Memphis Center
09:00AM 36.2144 -93.1686 273° West 430 495 38,000  Level Memphis Center
09:01AM 36.2194 -93.3156 272° West 430 495 38,000  Level Memphis Center
09:02AM 36.2222 -93.4597 271° West 430 495 38,000  Level Memphis Center
09:03AM 36.2269 -93.6039 272° West 425 489 38,000  Level Memphis Center
09:04AM 36.2339 -93.7378 274° West 425 489 38,000  Level Memphis Center
09:05AM 36.2381 -93.8847 272° West 425 489 38,000  Level Memphis Center
09:06AM 36.2442 -94.0292 273° West 425 489 38,000  Level Memphis Center
09:07AM 36.2461 -94.1733 271° West 425 489 38,000  Level Memphis Center
09:08AM 36.2439 -94.3147 269° West 419 482 38,000  Level Memphis Center
09:10AM 36.2386 -94.5706 269° West 416 479 38,000  Level Kansas City Center
09:11AM 36.2358 -94.7153 269° West 417 480 38,000  Level Kansas City Center
09:12AM 36.2322 -94.8592 268° West 417 480 38,000  Level Kansas City Center
09:13AM 36.2283 -95.0036 268° West 417 480 38,000  Level Kansas City Center
09:14AM 36.2225 -95.1628 267° West 415 478 38,000  Level Kansas City Center
09:20AM 36.1970 -96.0500 267° West 418 481 38,000  Level FlightAware
09:21AM 36.1940 -96.1550 268° West 416 479 38,000  Level FlightAware
09:22AM 36.1890 -96.2890 267° West 415 478 38,000  Level FlightAware
09:23AM 36.1850 -96.3840 267° West 415 478 38,000  Level FlightAware
09:23AM 36.1820 -96.4870 268° West 416 479 38,000  Level FlightAware
09:24AM 36.1780 -96.5960 267° West 417 480 38,000  Level FlightAware
09:25AM 36.1750 -96.6930 268° West 419 482 38,000  Level FlightAware
09:25AM 36.1700 -96.8010 267° West 420 483 38,000  Level FlightAware
09:26AM 36.1660 -96.8950 267° West 421 484 38,000  Level FlightAware
09:27AM 36.1630 -96.9790 267° West 422 486 38,000  Level FlightAware
09:28AM 36.1580 -97.1020 267° West 422 486 38,000  Level FlightAware
09:28AM 36.1540 -97.1890 267° West 422 486 38,000  Level FlightAware
09:29AM 36.1510 -97.2710 267° West 422 486 38,000  Level FlightAware
09:30AM 36.1440 -97.3950 266° West 421 484 38,000  Level FlightAware
09:30AM 36.1400 -97.4980 267° West 419 482 38,000  Level FlightAware
09:31AM 36.1360 -97.5980 267° West 417 480 38,000  Level FlightAware
09:32AM 36.1310 -97.7010 267° West 416 479 38,000  Level FlightAware
09:32AM 36.1270 -97.7740 266° West 415 478 38,000  Level FlightAware
09:33AM 36.1190 -97.8990 266° West 412 474 38,000  Level FlightAware
09:34AM 36.1040 -97.9820 257° West 411 473 38,000  Level FlightAware
09:35AM 36.0850 -98.0860 257° West 410 472 38,000  Level FlightAware
09:35AM 36.0680 -98.1870 258° West 410 472 38,000  Level FlightAware
09:36AM 36.0530 -98.2680 257° West 410 472 38,000  Level FlightAware
09:37AM 36.0390 -98.3460 258° West 410 472 38,000  Level FlightAware
09:37AM 36.0240 -98.4230 256° West 410 472 38,000  Level FlightAware
09:38AM 36.0040 -98.5560 260° West 412 474 38,000  Level FlightAware
09:39AM 35.9920 -98.6520 261° West 408 470 38,000  Level FlightAware
09:39AM 35.9800 -98.7480 261° West 408 470 38,000  Level FlightAware
09:40AM 35.9700 -98.8260 261° West 408 470 38,000  Level FlightAware
09:41AM 35.9600 -98.9040 261° West 408 470 38,000  Level FlightAware
09:42AM 35.9470 -99.0020 261° West 408 470 38,000  Level FlightAware
09:42AM 35.9370 -99.0800 261° West 408 470 38,000  Level FlightAware
09:43AM 35.9270 -99.1590 261° West 408 470 38,000  Level FlightAware
09:44AM 35.9170 -99.2370 261° West 408 470 38,000  Level FlightAware
09:44AM 35.9070 -99.3150 261° West 408 470 38,000  Level FlightAware
09:45AM 35.8940 -99.4130 261° West 408 470 38,000  Level FlightAware
09:46AM 35.8840 -99.4910 261° West 408 470 38,000  Level FlightAware
09:46AM 35.8740 -99.5690 261° West 408 470 38,000  Level FlightAware
09:47AM 35.8640 -99.6480 261° West 408 470 38,000  Level FlightAware
09:48AM 35.8520 -99.7450 261° West 408 470 38,000  Level FlightAware
09:49AM 35.8420 -99.8240 261° West 408 470 38,000  Level FlightAware
09:49AM 35.9306 -100.0350 261° West 377 434 38,000  Level Kansas City Center
09:50AM 35.9267 -100.1633 268° West 377 434 38,000  Level Kansas City Center
09:51AM 35.9225 -100.2933 268° West 379 436 38,000  Level Kansas City Center
09:52AM 35.9175 -100.4244 267° West 384 442 38,000  Level Kansas City Center
09:53AM 35.9133 -100.5553 268° West 382 440 38,000  Level Albuquerque Center
09:54AM 35.9086 -100.6839 267° West 379 436 38,000  Level Albuquerque Center
09:55AM 35.9025 -100.8383 267° West 378 435 38,000  Level Albuquerque Center
09:56AM 35.8978 -100.9678 267° West 379 436 38,000  Level Albuquerque Center
09:57AM 35.8917 -101.0947 267° West 376 433 38,000  Level Albuquerque Center
09:58AM 35.8872 -101.2239 268° West 379 436 38,000  Level Albuquerque Center
09:59AM 35.8814 -101.3536 267° West 379 436 38,000  Level Albuquerque Center
10:00AM 35.8767 -101.4831 267° West 381 438 38,000  Level Albuquerque Center
10:01AM 35.8700 -101.6133 266° West 382 440 38,000  Level Albuquerque Center
10:02AM 35.8625 -101.7697 267° West 384 442 38,000  Level Albuquerque Center
10:03AM 35.8567 -101.9011 267° West 386 444 38,000  Level Albuquerque Center
10:04AM 35.8506 -102.0308 267° West 384 442 38,000  Level Albuquerque Center
10:06AM 35.8433 -102.1608 266° West 384 442 38,000  Level Albuquerque Center
10:07AM 35.8369 -102.2922 267° West 385 443 38,000  Level Albuquerque Center
10:08AM 35.8292 -102.4228 266° West 385 443 38,000  Level Albuquerque Center
10:09AM 35.8231 -102.5542 267° West 386 444 38,000  Level Albuquerque Center
10:10AM 35.8142 -102.7114 266° West 385 443 38,000  Level Albuquerque Center
10:11AM 35.8067 -102.8422 266° West 386 444 38,000  Level Albuquerque Center
10:12AM 35.8006 -102.9789 267° West 384 442 38,000  Level Albuquerque Center
10:13AM 35.7928 -103.1103 266° West 383 441 38,000  Level Albuquerque Center
10:14AM 35.7853 -103.2417 266° West 383 441 38,000  Level Albuquerque Center
10:15AM 35.7775 -103.3728 266° West 382 440 38,000  Level Albuquerque Center
10:16AM 35.7694 -103.5050 266° West 385 443 38,000  Level Albuquerque Center
10:17AM 35.7603 -103.6386 265° West 389 448 38,000  Level Albuquerque Center
10:18AM 35.7522 -103.7739 266° West 392 451 38,000  Level Albuquerque Center
10:19AM 35.7442 -103.9081 266° West 393 452 38,000  Level Albuquerque Center
10:20AM 35.7333 -104.0664 265° West 396 456 38,000  Level Albuquerque Center
10:21AM 35.7233 -104.2011 265° West 395 455 38,000  Level Albuquerque Center
10:22AM 35.7156 -104.3350 266° West 393 452 38,000  Level Albuquerque Center
10:23AM 35.7053 -104.4708 265° West 396 456 38,000  Level Albuquerque Center
10:24AM 35.6961 -104.6064 265° West 397 457 38,000  Level Albuquerque Center
10:25AM 35.6861 -104.7431 265° West 398 458 38,000  Level Albuquerque Center
10:26AM 35.6761 -104.8786 265° West 397 457 38,000  Level Albuquerque Center
10:27AM 35.6658 -105.0142 265° West 397 457 38,000  Level Albuquerque Center
10:28AM 35.6539 -105.1731 265° West 398 458 38,000  Level Albuquerque Center
10:34AM 35.5770 -105.9750 265° West 402 463 38,000  Level FlightAware
10:35AM 35.5680 -106.0620 263° West 400 460 38,000  Level FlightAware
10:35AM 35.5580 -106.1680 263° West 401 461 38,000  Level FlightAware
10:36AM 35.5490 -106.2550 263° West 400 460 38,000  Level FlightAware
10:37AM 35.5390 -106.3480 262° West 399 459 38,000  Level FlightAware
10:38AM 35.5290 -106.4480 263° West 400 460 38,000  Level FlightAware
10:38AM 35.5200 -106.5380 263° West 401 461 38,000  Level FlightAware
10:39AM 35.5090 -106.6410 263° West 401 461 38,000  Level FlightAware
10:40AM 35.5000 -106.7300 263° West 402 463 38,000  Level FlightAware
10:40AM 35.4890 -106.8320 262° West 402 463 38,000  Level FlightAware
10:41AM 35.4790 -106.9220 262° West 402 463 38,000  Level FlightAware
10:42AM 35.4680 -107.0240 262° West 403 464 38,000  Level FlightAware
10:42AM 35.4580 -107.1140 262° West 402 463 38,000  Level FlightAware
10:43AM 35.4460 -107.2040 261° West 398 458 38,000  Level FlightAware
10:44AM 35.4160 -107.2950 248° West 395 455 38,000  Level FlightAware
10:45AM 35.3880 -107.3760 247° West 393 452 38,000  Level FlightAware
10:45AM 35.3550 -107.4720 247° West 391 450 38,000  Level FlightAware
10:46AM 35.3270 -107.5530 247° West 390 449 38,000  Level FlightAware
10:47AM 35.2990 -107.6340 247° West 390 449 38,000  Level FlightAware
10:47AM 35.2680 -107.7240 247° West 390 449 38,000  Level FlightAware
10:48AM 35.2450 -107.7950 248° West 391 450 38,000  Level FlightAware
10:49AM 35.2160 -107.8800 247° West 392 451 38,000  Level FlightAware
10:50AM 35.1730 -108.0100 248° West 394 453 38,000  Level FlightAware
10:50AM 35.1460 -108.0930 248° West 394 453 38,000  Level FlightAware
10:51AM 35.1290 -108.1780 256° West 395 455 38,000  Level FlightAware
10:52AM 35.1200 -108.2810 264° West 396 456 38,000  Level FlightAware
10:52AM 35.1130 -108.3670 264° West 398 458 38,000  Level FlightAware
10:53AM 35.1050 -108.4670 264° West 398 458 38,000  Level FlightAware
10:54AM 35.0970 -108.5580 264° West 398 458 38,000  Level FlightAware
10:55AM 35.0900 -108.6440 264° West 399 459 38,000  Level FlightAware
10:55AM 35.0810 -108.7480 264° West 399 459 38,000  Level FlightAware
10:56AM 35.0740 -108.8380 265° West 398 458 38,000  Level FlightAware
10:57AM 35.0660 -108.9230 263° West 399 459 38,000  Level FlightAware
10:57AM 35.0570 -109.0260 264° West 394 453 38,000  Level FlightAware
10:58AM 35.0490 -109.1140 264° West 393 452 38,000  Level FlightAware
10:59AM 35.0400 -109.2160 264° West 393 452 38,000  Level FlightAware
10:59AM 35.0330 -109.3030 264° West 392 451 38,000  Level FlightAware
11:00AM 35.0240 -109.3990 263° West 391 450 38,000  Level FlightAware
11:01AM 35.0160 -109.4870 264° West 389 448 38,000  Level FlightAware
11:02AM 35.0060 -109.5880 263° West 388 447 38,000  Level FlightAware
11:02AM 35.0010 -109.6470 264° West 388 447 38,000  Level FlightAware
11:03AM 34.9920 -109.7470 264° West 388 447 38,000  Level FlightAware
11:04AM 34.9830 -109.8340 263° West 388 447 38,000  Level FlightAware
11:04AM 34.9750 -109.9210 264° West 388 447 38,000  Level FlightAware
11:05AM 34.9660 -110.0220 264° West 387 445 38,000  Level FlightAware
11:06AM 34.9570 -110.1080 263° West 386 444 38,000  Level FlightAware
11:06AM 34.9480 -110.2030 263° West 387 445 38,000  Level FlightAware
11:07AM 34.9400 -110.2900 264° West 386 444 38,000  Level FlightAware
11:08AM 34.9310 -110.3820 263° West 383 441 38,000  Level FlightAware
11:08AM 34.9210 -110.4720 262° West 382 440 38,000  Level FlightAware
11:09AM 34.9120 -110.5600 263° West 381 438 38,000  Level FlightAware
11:10AM 34.9030 -110.6530 263° West 379 436 38,000  Level FlightAware
11:11AM 34.8950 -110.7370 263° West 376 433 38,000  Level FlightAware
11:11AM 34.8850 -110.8330 263° West 374 430 38,000  Level FlightAware
11:12AM 34.8760 -110.9170 263° West 374 430 38,000  Level FlightAware
11:13AM 34.8680 -110.9990 263° West 376 433 38,000  Level FlightAware
11:13AM 34.8580 -111.0930 263° West 377 434 38,000  Level FlightAware
11:14AM 34.8490 -111.1750 262° West 378 435 38,000  Level FlightAware
11:15AM 34.8390 -111.2740 263° West 378 435 38,000  Level FlightAware
11:15AM 34.8300 -111.3570 262° West 378 435 38,000  Level FlightAware
11:16AM 34.8210 -111.4380 262° West 381 438 38,000  Level FlightAware
11:17AM 34.8100 -111.5380 262° West 383 441 38,000  Level FlightAware
11:18AM 34.8010 -111.6230 263° West 384 442 38,000  Level FlightAware
11:18AM 34.7900 -111.7180 262° West 384 442 38,000  Level FlightAware
11:19AM 34.7810 -111.8020 263° West 380 437 38,000  Level FlightAware
11:20AM 34.7710 -111.8870 262° West 378 435 38,000  Level FlightAware
11:20AM 34.7610 -111.9840 263° West 377 434 38,000  Level FlightAware
11:21AM 34.7510 -112.0680 262° West 376 433 38,000  Level FlightAware
11:22AM 34.7410 -112.1600 262° West 375 432 38,000  Level FlightAware
11:22AM 34.7310 -112.2430 262° West 373 429 38,000  Level FlightAware
11:23AM 34.7200 -112.3390 262° West 373 429 38,000  Level FlightAware
11:24AM 34.7110 -112.4210 262° West 373 429 38,000  Level FlightAware
11:25AM 34.7010 -112.5040 262° West 372 428 38,000  Level FlightAware
11:25AM 34.6900 -112.5950 262° West 372 428 38,000  Level FlightAware
11:26AM 34.6800 -112.6770 262° West 370 426 38,000  Level FlightAware
11:27AM 34.6710 -112.7580 262° West 372 428 38,000  Level FlightAware
11:27AM 34.6590 -112.8550 261° West 372 428 38,000  Level FlightAware
11:28AM 34.6490 -112.9380 262° West 372 428 38,000  Level FlightAware
11:29AM 34.6390 -113.0200 262° West 374 430 38,000  Level FlightAware
11:29AM 34.6280 -113.1100 262° West 372 428 38,000  Level FlightAware
11:30AM 34.6180 -113.1940 262° West 372 428 38,000  Level FlightAware
11:31AM 34.6060 -113.2880 261° West 372 428 38,000  Level FlightAware
11:32AM 34.5950 -113.3790 262° West 370 426 38,000  Level FlightAware
11:32AM 34.5850 -113.4600 261° West 369 425 38,000  Level FlightAware
11:33AM 34.5750 -113.5420 262° West 367 422 38,000  Level FlightAware
11:34AM 34.5620 -113.6350 260° West 368 423 38,000  Level FlightAware
11:34AM 34.5480 -113.7160 258° West 370 426 38,000  Level FlightAware
11:35AM 34.5330 -113.8070 259° West 368 423 38,000  Level FlightAware
11:36AM 34.5210 -113.8860 260° West 368 423 38,000  Level FlightAware
11:36AM 34.5080 -113.9680 259° West 367 422 38,000  Level FlightAware
11:37AM 34.4930 -114.0570 258° West 365 420 38,000  Level FlightAware
11:38AM 34.4790 -114.1400 258° West 363 418 38,000  Level FlightAware
11:39AM 34.4660 -114.2190 259° West 362 417 38,000  Level FlightAware
11:39AM 34.4530 -114.3040 260° West 363 418 38,000  Level FlightAware
11:40AM 34.4390 -114.3860 258° West 363 418 38,000  Level FlightAware
11:41AM 34.4190 -114.5060 259° West 375 432 38,000  Level FlightAware
11:42AM 34.4040 -114.5930 258° West 378 435 38,000  Level FlightAware
11:42AM 34.3930 -114.6610 259° West 379 436 38,000  Level FlightAware
11:43AM 34.3750 -114.7670 258° West 382 440 38,000  Level FlightAware
11:44AM 34.3610 -114.8510 259° West 382 440 38,000  Level FlightAware
11:44AM 34.3470 -114.9350 259° West 383 441 38,000  Level FlightAware
11:45AM 34.3330 -115.0160 258° West 386 444 38,000  Level FlightAware
11:46AM 34.3160 -115.1150 258° West 388 447 38,000  Level FlightAware
11:47AM 34.2990 -115.2100 258° West 390 449 38,000  Level FlightAware
11:47AM 34.2850 -115.2950 259° West 390 449 38,000  Level FlightAware
11:48AM 34.2700 -115.3790 258° West 384 442 38,000  Level FlightAware
11:49AM 34.2530 -115.4750 258° West 382 440 38,000  Level FlightAware
11:49AM 34.2410 -115.5450 258° West 380 437 38,000  Level FlightAware
11:50AM 34.2240 -115.6420 258° West 372 428 38,000  Level FlightAware
11:51AM 34.2090 -115.7240 258° West 373 429 38,000  Level FlightAware
11:52AM 34.1890 -115.8380 258° West 374 430 38,000  Level FlightAware
11:52AM 34.1720 -115.9340 258° West 377 434 38,000  Level FlightAware
11:53AM 34.1570 -116.0140 257° West 378 435 38,000 -300 Level FlightAware
11:54AM 34.1420 -116.0970 258° West 370 426 37,600 -1,080 Descending FlightAware
11:54AM 34.1260 -116.1900 258° West 367 422 36,500 -2,100 Descending FlightAware
11:55AM 34.1110 -116.2710 257° West 364 419 34,700 -2,700 Descending FlightAware
11:56AM 34.0960 -116.3530 258° West 357 411 32,700 -2,580 Descending FlightAware
11:57AM 34.0820 -116.4280 257° West 342 394 31,100 -2,580 Descending FlightAware
11:57AM 34.0680 -116.5040 257° West 333 383 29,300 -2,580 Descending FlightAware
11:58AM 34.0530 -116.5860 258° West 319 367 27,500 -2,220 Descending FlightAware
11:59AM 34.0410 -116.6510 257° West 311 358 26,200 -2,100 Descending FlightAware
11:59AM 34.0260 -116.7290 257° West 318 366 24,600 -2,160 Descending FlightAware
12:00PM 34.0130 -116.7990 257° West 314 361 23,200 -2,100 Descending FlightAware
12:01PM 33.9990 -116.8760 258° West 300 345 21,700 -1,980 Descending FlightAware
12:01PM 33.9860 -116.9400 256° West 294 338 20,400 -1,920 Descending FlightAware
12:02PM 33.9750 -117.0010 258° West 296 341 19,200 -1,920 Descending FlightAware
12:03PM 33.9610 -117.0770 257° West 298 343 17,700 -1,800 Descending FlightAware
12:04PM 33.9520 -117.1440 261° West 315 362 16,700 -1,200 Descending FlightAware
12:04PM 33.9450 -117.2220 264° West 320 368 16,000 -900 Descending FlightAware
12:05PM 33.9390 -117.2910 264° West 319 367 15,500 -840 Descending FlightAware
12:06PM 33.9340 -117.3600 265° West 319 367 14,900 -900 Descending FlightAware
12:06PM 33.9560 -117.4420 288° West 324 373 14,300 -1,020 Descending FlightAware
12:07PM 33.9790 -117.5060 293° West 317 365 13,500 -1,500 Descending FlightAware
12:08PM 34.0010 -117.5700 293° West 301 346 12,300 -1,800 Descending FlightAware
12:08PM 34.0130 -117.6170 287° West 285 328 11,400 -1,800 Descending FlightAware
12:09PM 34.0070 -117.6840 264° West 277 319 10,100 -1,680 Descending FlightAware
12:09PM 34.0030 -117.7250 263° West 281 323 9,500 -1,440 Descending FlightAware
12:10PM 33.9980 -117.7710 263° West 281 323 8,800 -1,440 Descending FlightAware
12:10PM 33.9950 -117.8080 264° West 278 320 8,200 -1,320 Descending FlightAware
12:11PM 33.9900 -117.8540 263° West 273 314 7,600 -1,320 Descending FlightAware
12:11PM 33.9860 -117.8990 264° West 271 312 6,900 -1,320 Descending FlightAware
12:12PM 33.9820 -117.9380 263° West 265 305 6,400 -1,080 Descending FlightAware
12:12PM 33.9800 -117.9590 263° West 265 305 6,200 -960 Descending FlightAware
12:12PM 33.9760 -118.0020 264° West 254 292 5,700 -900 Descending FlightAware
12:13PM 33.9740 -118.0160 260° West 249 287 5,600 -780 Descending FlightAware
12:13PM 33.9700 -118.0560 263° West 236 272 5,200 -900 Descending FlightAware
12:14PM 33.9660 -118.0950 263° West 228 262 4,700 -1,140 Descending FlightAware
12:14PM 33.9640 -118.1250 265° West 223 257 4,200 -1,200 Descending FlightAware
12:15PM 33.9600 -118.1620 263° West 220 253 3,600 -1,140 Descending FlightAware
12:15PM 33.9570 -118.1920 263° West 211 243 3,200 -1,140 Descending FlightAware
12:15PM 33.9530 -118.2270 262° West 205 236 2,600 -1,140 Descending FlightAware
12:16PM 33.9500 -118.2570 263° West 195 224 2,100 -1,020 Descending FlightAware
12:16PM 33.9470 -118.2820 262° West 188 216 1,700 -1,140 Descending FlightAware
12:17PM 33.9440 -118.3140 264° West 166 191 1,100 -1,080 Descending FlightAware
12:17PM 33.9420 -118.3330 263° West 158 182 800 660 Descending FlightAware
12:18PM 33.9470 -118.2850 83° East 184 212 1,600 960 Climbing FlightAware
12:18PM 33.9450 -118.3090 264° West 184 212 1,600  Level FlightAware